Time;durP1;ratioP1;P1;durP2;ratioP2;P2;SDS_P1;SDS_P2;PMS_P1;PMS_P2;Temp;Humidity;BMP_temperature;BMP_pressure;BME280_temperature;BME280_humidity;BME280_pressure;Samples;Min_cycle;Max_cycle;Signal;HPM_P1;HPM_P2
2023/06/28 00:01:30;;;;;;;8.17;2.83;;;;;;;;;;5031182;28;20447;-81
2023/06/28 00:03:58;;;;;;;9.50;2.70;;;;;;;;;;5033230;28;20485;-80
2023/06/28 00:06:25;;;;;;;8.47;2.00;;;;;;;;;;5031952;28;20530;-79
2023/06/28 00:08:53;;;;;;;4.53;1.80;;;;;;;;;;5026607;28;20494;-79
2023/06/28 00:11:22;;;;;;;7.00;2.80;;;;;;;;;;5026922;28;20534;-80
2023/06/28 00:13:49;;;;;;;10.03;1.93;;;;;;;;;;5030134;28;20470;-81
2023/06/28 00:16:17;;;;;;;12.67;3.07;;;;;;;;;;5028590;28;21121;-80
2023/06/28 00:18:46;;;;;;;13.47;2.33;;;;;;;;;;5025209;28;20479;-81
2023/06/28 00:21:14;;;;;;;8.07;2.20;;;;;;;;;;5029162;28;20455;-81
2023/06/28 00:23:42;;;;;;;4.80;2.20;;;;;;;;;;5026147;28;20726;-80
2023/06/28 00:26:09;;;;;;;5.03;2.07;;;;;;;;;;5025007;28;20439;-80
2023/06/28 00:28:37;;;;;;;8.03;2.30;;;;;;;;;;5031550;28;20482;-82
2023/06/28 00:31:05;;;;;;;7.43;2.40;;;;;;;;;;5033184;28;20588;-80
2023/06/28 00:33:32;;;;;;;6.10;2.00;;;;;;;;;;5029777;28;20478;-81
2023/06/28 00:36:01;;;;;;;9.23;2.57;;;;;;;;;;5030739;28;20579;-80
2023/06/28 00:38:28;;;;;;;8.13;1.80;;;;;;;;;;5031808;28;21010;-81
2023/06/28 00:40:55;;;;;;;13.43;2.80;;;;;;;;;;5028329;28;21140;-80
2023/06/28 00:43:23;;;;;;;6.20;2.50;;;;;;;;;;5031995;28;20522;-81
2023/06/28 00:45:50;;;;;;;7.50;2.63;;;;;;;;;;5031977;28;20455;-81
2023/06/28 00:48:17;;;;;;;11.83;2.77;;;;;;;;;;5027232;28;20474;-79
2023/06/28 00:50:45;;;;;;;5.80;2.47;;;;;;;;;;5030951;28;20444;-79
2023/06/28 00:53:16;;;;;;;5.47;2.00;;;;;;;;;;5026207;28;20737;-82
2023/06/28 00:55:44;;;;;;;10.20;2.67;;;;;;;;;;5026069;28;20519;-81
2023/06/28 00:58:11;;;;;;;8.83;3.00;;;;;;;;;;5029593;28;20455;-81
2023/06/28 01:00:39;;;;;;;8.30;2.97;;;;;;;;;;5029203;28;20586;-80
2023/06/28 01:03:09;;;;;;;4.90;2.27;;;;;;;;;;5023855;28;20463;-82
2023/06/28 01:05:37;;;;;;;5.50;2.23;;;;;;;;;;5026764;28;20450;-81
2023/06/28 01:08:05;;;;;;;5.40;1.93;;;;;;;;;;5033424;28;20490;-79
2023/06/28 01:10:34;;;;;;;8.03;2.30;;;;;;;;;;5032751;28;20463;-80
2023/06/28 01:13:02;;;;;;;5.30;2.10;;;;;;;;;;5028955;28;20462;-81
2023/06/28 01:15:30;;;;;;;7.90;2.60;;;;;;;;;;5031829;28;20463;-81
2023/06/28 01:18:00;;;;;;;4.80;2.37;;;;;;;;;;5032136;28;20455;-82
2023/06/28 01:20:30;;;;;;;7.93;2.80;;;;;;;;;;5034234;28;20506;-81
2023/06/28 01:22:59;;;;;;;9.40;2.30;;;;;;;;;;5031304;28;20463;-79
2023/06/28 01:25:27;;;;;;;11.13;2.93;;;;;;;;;;5029631;28;20463;-80
2023/06/28 01:27:54;;;;;;;4.40;2.07;;;;;;;;;;5028675;28;20546;-80
2023/06/28 01:30:23;;;;;;;4.40;2.10;;;;;;;;;;5023145;28;20538;-81
2023/06/28 01:32:51;;;;;;;4.53;2.00;;;;;;;;;;5022314;28;20743;-82
2023/06/28 01:35:18;;;;;;;6.30;2.50;;;;;;;;;;5027123;28;20459;-81
2023/06/28 01:37:46;;;;;;;11.33;2.90;;;;;;;;;;5028161;28;20768;-80
2023/06/28 01:40:19;;;;;;;9.03;3.57;;;;;;;;;;5024801;28;20487;-82
2023/06/28 01:42:47;;;;;;;8.70;2.20;;;;;;;;;;5028250;28;20439;-81
2023/06/28 01:45:15;;;;;;;5.40;2.53;;;;;;;;;;5028069;28;20475;-81
2023/06/28 01:47:42;;;;;;;6.10;2.50;;;;;;;;;;5024552;28;20465;-81
2023/06/28 01:50:10;;;;;;;10.20;2.70;;;;;;;;;;5028900;28;20455;-80
2023/06/28 01:52:38;;;;;;;5.03;2.13;;;;;;;;;;5029649;28;20466;-80
2023/06/28 01:55:06;;;;;;;7.00;3.00;;;;;;;;;;5021818;28;20939;-81
2023/06/28 01:57:35;;;;;;;5.90;2.70;;;;;;;;;;5027493;28;20519;-80
2023/06/28 02:00:11;;;;;;;7.30;2.60;;;;;;;;;;5031919;28;20527;-80
2023/06/28 02:02:38;;;;;;;5.93;2.50;;;;;;;;;;5033486;28;20465;-81
2023/06/28 02:05:07;;;;;;;5.30;2.93;;;;;;;;;;5034517;28;20529;-80
2023/06/28 02:07:36;;;;;;;4.40;2.97;;;;;;;;;;5031102;28;20463;-81
2023/06/28 02:10:07;;;;;;;9.43;3.00;;;;;;;;;;5030709;28;20459;-80
2023/06/28 02:12:39;;;;;;;8.83;3.37;;;;;;;;;;5032964;28;20451;-81
2023/06/28 02:15:08;;;;;;;5.67;3.43;;;;;;;;;;5031689;28;20439;-81
2023/06/28 02:17:35;;;;;;;16.73;2.90;;;;;;;;;;5027362;28;20561;-81
2023/06/28 02:20:08;;;;;;;5.23;2.93;;;;;;;;;;5025257;28;20581;-80
2023/06/28 02:22:36;;;;;;;16.87;3.10;;;;;;;;;;5026848;28;20451;-83
2023/06/28 02:25:04;;;;;;;7.20;3.40;;;;;;;;;;5026003;28;20451;-82
2023/06/28 02:27:32;;;;;;;14.40;4.17;;;;;;;;;;5029715;28;20873;-82
2023/06/28 02:30:01;;;;;;;9.60;3.17;;;;;;;;;;5031305;28;20569;-81
2023/06/28 02:32:30;;;;;;;10.70;3.20;;;;;;;;;;5029106;28;20590;-81
2023/06/28 02:34:58;;;;;;;8.10;3.43;;;;;;;;;;5028330;28;20466;-81
2023/06/28 02:37:26;;;;;;;7.50;3.60;;;;;;;;;;5032008;28;20510;-82
2023/06/28 02:39:53;;;;;;;7.77;3.33;;;;;;;;;;5034910;28;20487;-81
2023/06/28 02:42:20;;;;;;;8.80;3.40;;;;;;;;;;5031812;28;20533;-82
2023/06/28 02:44:48;;;;;;;8.30;3.17;;;;;;;;;;5035060;28;20452;-81
2023/06/28 02:47:17;;;;;;;7.10;3.40;;;;;;;;;;5034283;28;20438;-81
2023/06/28 02:49:44;;;;;;;10.03;3.30;;;;;;;;;;5036591;28;20527;-81
2023/06/28 02:52:12;;;;;;;6.70;3.93;;;;;;;;;;5034058;28;20880;-83
2023/06/28 02:54:39;;;;;;;5.17;3.07;;;;;;;;;;5034110;28;20469;-81
2023/06/28 02:57:09;;;;;;;12.93;4.00;;;;;;;;;;5034987;28;20447;-81
2023/06/28 02:59:36;;;;;;;10.03;3.90;;;;;;;;;;5030458;28;20550;-83
2023/06/28 03:02:04;;;;;;;8.70;3.57;;;;;;;;;;5028632;28;20534;-81
2023/06/28 03:04:39;;;;;;;9.70;3.70;;;;;;;;;;5027128;28;20837;-81
2023/06/28 03:07:07;;;;;;;5.67;3.27;;;;;;;;;;5029898;28;20461;-80
2023/06/28 03:09:35;;;;;;;10.43;3.53;;;;;;;;;;5027758;28;20788;-80
2023/06/28 03:12:03;;;;;;;13.07;3.43;;;;;;;;;;5025051;28;20888;-81
2023/06/28 03:14:30;;;;;;;11.07;3.70;;;;;;;;;;5027504;28;20545;-79
2023/06/28 03:16:57;;;;;;;7.10;3.17;;;;;;;;;;5028591;28;20451;-81
2023/06/28 03:19:25;;;;;;;7.60;3.00;;;;;;;;;;5030740;28;20459;-79
2023/06/28 03:21:54;;;;;;;8.77;3.57;;;;;;;;;;5030833;28;20455;-81
2023/06/28 03:24:21;;;;;;;6.43;3.47;;;;;;;;;;5030052;28;20469;-81
2023/06/28 03:26:49;;;;;;;7.40;6.10;;;;;;;;;;5033943;28;20459;-81
2023/06/28 03:29:16;;;;;;;7.83;3.17;;;;;;;;;;5031521;28;20467;-81
2023/06/28 03:31:45;;;;;;;9.60;3.30;;;;;;;;;;5028246;28;20486;-80
2023/06/28 03:34:23;;;;;;;12.03;3.87;;;;;;;;;;5032356;28;20518;-81
2023/06/28 03:36:51;;;;;;;8.70;3.43;;;;;;;;;;5031380;28;20513;-81
2023/06/28 03:39:19;;;;;;;8.40;3.87;;;;;;;;;;5027590;28;20541;-81
2023/06/28 03:41:47;;;;;;;10.03;3.60;;;;;;;;;;5031317;28;20548;-81
2023/06/28 03:44:15;;;;;;;5.67;3.30;;;;;;;;;;5030840;28;20455;-82
2023/06/28 03:46:46;;;;;;;7.07;3.47;;;;;;;;;;5033958;28;20451;-81
2023/06/28 03:49:14;;;;;;;6.00;3.10;;;;;;;;;;5022805;28;20455;-80
2023/06/28 03:51:41;;;;;;;7.50;3.70;;;;;;;;;;5027123;28;20454;-79
2023/06/28 03:54:08;;;;;;;5.87;3.30;;;;;;;;;;5026806;28;20455;-81
2023/06/28 03:56:37;;;;;;;9.20;3.20;;;;;;;;;;5026806;28;20459;-81
2023/06/28 03:59:07;;;;;;;10.73;2.50;;;;;;;;;;5024858;28;20613;-80
2023/06/28 04:01:35;;;;;;;10.90;3.67;;;;;;;;;;5025777;28;20502;-81
2023/06/28 04:04:03;;;;;;;8.50;3.27;;;;;;;;;;5027961;28;20487;-80
2023/06/28 04:06:30;;;;;;;10.17;3.53;;;;;;;;;;5027607;28;20451;-81
2023/06/28 04:08:58;;;;;;;8.20;3.23;;;;;;;;;;5033043;28;20474;-80
2023/06/28 04:11:25;;;;;;;5.37;2.93;;;;;;;;;;5030048;28;20458;-81
2023/06/28 04:13:54;;;;;;;7.53;3.00;;;;;;;;;;5028885;28;21007;-79
2023/06/28 04:16:21;;;;;;;10.70;3.40;;;;;;;;;;5026900;28;20740;-82
2023/06/28 04:18:49;;;;;;;12.67;3.67;;;;;;;;;;5028658;28;20449;-79
2023/06/28 04:21:16;;;;;;;6.87;2.73;;;;;;;;;;5029258;28;20495;-82
2023/06/28 04:23:43;;;;;;;12.30;3.80;;;;;;;;;;5028645;28;20479;-82
2023/06/28 04:26:12;;;;;;;9.80;2.50;;;;;;;;;;5027858;28;20458;-79
2023/06/28 04:28:40;;;;;;;6.43;3.03;;;;;;;;;;5024262;28;20465;-80
2023/06/28 04:31:10;;;;;;;12.10;4.23;;;;;;;;;;5021352;28;20763;-79
2023/06/28 04:33:37;;;;;;;10.23;2.67;;;;;;;;;;5020289;28;20505;-79
2023/06/28 04:36:05;;;;;;;4.60;2.67;;;;;;;;;;5022767;28;20471;-80
2023/06/28 04:38:33;;;;;;;6.17;2.50;;;;;;;;;;5028342;28;20936;-80
2023/06/28 04:41:01;;;;;;;9.60;3.20;;;;;;;;;;5027324;28;20555;-80
2023/06/28 04:43:29;;;;;;;6.27;2.60;;;;;;;;;;5022973;28;20463;-80
2023/06/28 04:45:56;;;;;;;6.90;2.23;;;;;;;;;;5022436;28;20529;-79
2023/06/28 04:48:28;;;;;;;5.20;2.80;;;;;;;;;;5025875;28;20462;-79
2023/06/28 04:50:56;;;;;;;8.03;3.63;;;;;;;;;;5027539;28;20438;-82
2023/06/28 04:53:23;;;;;;;8.10;3.20;;;;;;;;;;5025457;28;20459;-80
2023/06/28 04:55:52;;;;;;;8.00;2.47;;;;;;;;;;5018786;28;20462;-82
2023/06/28 04:58:22;;;;;;;11.23;4.77;;;;;;;;;;5028092;28;20483;-79
2023/06/28 05:00:49;;;;;;;7.83;1.93;;;;;;;;;;5026787;28;20578;-80
2023/06/28 05:03:18;;;;;;;9.73;2.37;;;;;;;;;;5021743;28;20448;-80
2023/06/28 05:05:47;;;;;;;6.17;1.90;;;;;;;;;;5029111;28;20435;-80
2023/06/28 05:08:15;;;;;;;7.40;2.00;;;;;;;;;;5028165;28;20463;-80
2023/06/28 05:10:43;;;;;;;10.40;3.07;;;;;;;;;;5024053;28;20529;-79
2023/06/28 05:13:10;;;;;;;9.77;2.50;;;;;;;;;;5019926;28;20455;-79
2023/06/28 05:15:38;;;;;;;5.30;2.30;;;;;;;;;;5024003;28;20431;-80
2023/06/28 05:18:06;;;;;;;5.43;2.03;;;;;;;;;;5022798;28;20884;-79
2023/06/28 05:20:34;;;;;;;5.03;1.70;;;;;;;;;;5021226;28;20540;-79
2023/06/28 05:23:17;;;;;;;7.87;2.40;;;;;;;;;;5021075;28;20486;-79
2023/06/28 05:25:48;;;;;;;4.83;1.67;;;;;;;;;;5023300;28;20451;-79
2023/06/28 05:28:16;;;;;;;6.63;1.70;;;;;;;;;;5019945;28;20455;-81
2023/06/28 05:30:45;;;;;;;5.70;1.50;;;;;;;;;;5023553;28;20451;-80
2023/06/28 05:33:17;;;;;;;6.77;2.40;;;;;;;;;;5026599;28;20447;-80
2023/06/28 05:35:45;;;;;;;5.50;1.90;;;;;;;;;;5022620;28;21051;-81
2023/06/28 05:38:17;;;;;;;8.40;1.50;;;;;;;;;;5025997;28;20447;-79
2023/06/28 05:40:45;;;;;;;6.27;1.33;;;;;;;;;;5021236;28;20482;-80
2023/06/28 05:43:15;;;;;;;6.00;1.40;;;;;;;;;;5023196;28;20489;-79
2023/06/28 05:45:43;;;;;;;7.03;2.20;;;;;;;;;;5023038;28;20483;-80
2023/06/28 05:48:13;;;;;;;7.33;1.77;;;;;;;;;;5003530;28;20455;-79
2023/06/28 05:50:42;;;;;;;3.50;1.20;;;;;;;;;;5020486;28;20459;-80
2023/06/28 05:53:10;;;;;;;6.23;1.70;;;;;;;;;;5025192;28;20447;-79
2023/06/28 05:55:39;;;;;;;4.70;1.37;;;;;;;;;;5025401;28;20435;-80
2023/06/28 05:58:06;;;;;;;5.37;1.50;;;;;;;;;;5018507;28;20521;-81
2023/06/28 06:00:34;;;;;;;3.53;1.30;;;;;;;;;;5016487;28;20548;-79
2023/06/28 06:03:04;;;;;;;4.70;1.43;;;;;;;;;;5018510;28;20435;-80
2023/06/28 06:05:32;;;;;;;7.00;1.70;;;;;;;;;;5014101;28;20474;-78
2023/06/28 06:07:59;;;;;;;6.27;1.17;;;;;;;;;;5017215;28;20787;-81
2023/06/28 06:10:32;;;;;;;5.13;1.40;;;;;;;;;;5020625;28;20558;-79
2023/06/28 06:13:09;;;;;;;3.37;1.30;;;;;;;;;;5023662;28;20482;-79
2023/06/28 06:15:42;;;;;;;6.30;1.90;;;;;;;;;;5013983;28;20454;-80
2023/06/28 06:18:10;;;;;;;5.20;2.37;;;;;;;;;;5018132;28;20448;-79
2023/06/28 06:20:39;;;;;;;6.10;1.77;;;;;;;;;;5018567;28;20494;-81
2023/06/28 06:23:06;;;;;;;7.50;1.73;;;;;;;;;;5020862;28;20453;-81
2023/06/28 06:25:34;;;;;;;3.77;1.40;;;;;;;;;;5019448;28;20460;-81
2023/06/28 06:28:07;;;;;;;3.20;1.27;;;;;;;;;;5026203;28;20459;-80
2023/06/28 06:30:36;;;;;;;10.63;1.60;;;;;;;;;;5023754;28;20450;-79
2023/06/28 06:44:17;;;;;;;4.57;1.23;;;;;;;;;;5004123;28;20490;-74
2023/06/28 06:54:05;;;;;;;;;;;;;;;;;;;;;
2023/06/28 06:56:27;;;;;;;7.93;1.77;;;;;;;;;;5052225;28;20480;-73
2023/06/28 07:02:01;;;;;;;6.03;1.80;;;;;;;;;;5049834;28;20511;-73
2023/06/28 07:07:07;;;;;;;4.43;1.80;;;;;;;;;;5049943;28;20534;-73
2023/06/28 07:12:50;;;;;;;4.53;1.50;;;;;;;;;;5055586;28;20499;-76
2023/06/28 07:15:35;;;;;;;5.43;1.37;;;;;;;;;;5043543;28;20493;-75
2023/06/28 07:18:11;;;;;;;9.77;1.83;;;;;;;;;;5057819;28;20882;-75
2023/06/28 07:23:38;;;;;;;4.30;1.40;;;;;;;;;;5040953;28;20495;-76
2023/06/28 07:26:44;;;;;;;3.40;1.40;;;;;;;;;;5035324;28;20462;-75
2023/06/28 07:29:38;;;;;;;3.97;1.30;;;;;;;;;;5044711;28;20449;-73
2023/06/28 07:32:07;;;;;;;4.63;1.10;;;;;;;;;;5038229;28;20561;-72
2023/06/28 07:34:38;;;;;;;5.83;1.63;;;;;;;;;;5049071;28;20474;-74
2023/06/28 07:37:09;;;;;;;5.93;1.37;;;;;;;;;;5061074;28;21046;-74
2023/06/28 07:39:58;;;;;;;7.17;1.93;;;;;;;;;;5058592;28;20453;-75
2023/06/28 07:45:28;;;;;;;5.03;1.30;;;;;;;;;;5041780;28;20527;-72
2023/06/28 07:54:28;;;;;;;4.93;1.67;;;;;;;;;;5057379;28;20895;-74
2023/06/28 08:18:50;;;;;;;3.90;1.33;;;;;;;;;;5051989;28;20207;-74
2023/06/28 08:58:29;;;;;;;4.53;1.40;;;;;;;;;;5008967;28;20464;-74
2023/06/28 09:04:18;;;;;;;4.93;1.33;;;;;;;;;;4972935;28;20476;-73
2023/06/28 09:54:59;;;;;;;3.30;1.40;;;;;;;;;;5058196;28;20232;-74
2023/06/28 12:15:58;;;;;;;3.70;1.50;;;;;;;;;;5000597;28;20627;-73
2023/06/28 13:16:06;;;;;;;;;;;;;;;;;;;;;
2023/06/28 13:18:52;;;;;;;6.00;1.63;;;;;;;;;;5030722;28;20522;-75
2023/06/28 13:21:37;;;;;;;5.80;1.63;;;;;;;;;;5023566;28;20478;-75
2023/06/28 13:46:36;;;;;;;6.20;1.50;;;;;;;;;;5061241;28;20207;-76
2023/06/28 13:49:19;;;;;;;4.70;1.47;;;;;;;;;;5051451;28;20496;-76
2023/06/28 13:59:36;;;;;;;4.67;1.63;;;;;;;;;;5048718;28;20222;-75
2023/06/28 14:05:54;;;;;;;4.97;1.80;;;;;;;;;;5061177;28;20432;-75
2023/06/28 14:20:42;;;;;;;4.10;2.13;;;;;;;;;;5054559;28;21474;-76
2023/06/28 14:26:15;;;;;;;4.47;1.50;;;;;;;;;;5035261;28;20459;-75
2023/06/28 14:38:03;;;;;;;6.03;1.70;;;;;;;;;;5043656;28;20569;-75
2023/06/28 14:44:01;;;;;;;4.77;1.83;;;;;;;;;;5033531;28;20950;-75
2023/06/28 14:52:37;;;;;;;3.20;1.23;;;;;;;;;;5003078;28;20543;-75
2023/06/28 14:55:21;;;;;;;3.30;1.40;;;;;;;;;;5048032;28;21183;-76
2023/06/28 14:57:59;;;;;;;7.50;1.50;;;;;;;;;;5046017;28;20489;-76
2023/06/28 15:01:01;;;;;;;;;;;;;;;;;;;;;
2023/06/28 15:03:47;;;;;;;6.77;2.30;;;;;;;;;;5054541;28;20548;-75
2023/06/28 15:06:19;;;;;;;3.30;1.30;;;;;;;;;;5056598;28;20465;-77
2023/06/28 15:12:23;;;;;;;2.80;1.00;;;;;;;;;;5066554;28;20794;-75
2023/06/28 15:18:33;;;;;;;3.10;1.20;;;;;;;;;;4984228;28;20457;-75
2023/06/28 15:21:05;;;;;;;3.80;1.47;;;;;;;;;;4990675;28;20582;-76
2023/06/28 15:26:29;;;;;;;5.30;1.40;;;;;;;;;;5054379;28;20449;-75
2023/06/28 15:31:49;;;;;;;4.53;1.43;;;;;;;;;;5054248;28;20457;-74
2023/06/28 15:34:24;;;;;;;4.27;1.30;;;;;;;;;;5058752;28;20527;-77
2023/06/28 15:37:04;;;;;;;4.20;1.93;;;;;;;;;;5058305;28;20473;-76
2023/06/28 15:42:38;;;;;;;;;;;;;;;;;;;;;
2023/06/28 15:45:27;;;;;;;6.40;1.70;;;;;;;;;;5058243;28;20887;-74
2023/06/28 15:48:03;;;;;;;4.60;1.57;;;;;;;;;;5063539;28;20453;-75
2023/06/28 15:50:52;;;;;;;4.27;1.40;;;;;;;;;;5057752;28;20544;-74
2023/06/28 15:56:52;;;;;;;6.40;4.03;;;;;;;;;;5058238;28;20441;-74
2023/06/28 15:59:47;;;;;;;4.90;1.63;;;;;;;;;;5063055;28;20589;-74
2023/06/28 16:03:02;;;;;;;;;;;;;;;;;;;;;
2023/06/28 16:11:27;;;;;;;4.80;2.60;;;;;;;;;;5023413;28;20494;-75
2023/06/28 16:20:28;;;;;;;6.60;1.80;;;;;;;;;;5049648;28;20532;-73
2023/06/28 16:28:44;;;;;;;4.10;1.53;;;;;;;;;;5054682;28;20430;-74
2023/06/28 16:31:32;;;;;;;4.07;1.23;;;;;;;;;;5060075;28;20468;-75
2023/06/28 16:34:15;;;;;;;3.20;1.10;;;;;;;;;;5051533;28;20848;-75
2023/06/28 16:42:52;;;;;;;3.70;1.67;;;;;;;;;;5074407;28;20914;-74
2023/06/28 16:45:27;;;;;;;4.20;1.70;;;;;;;;;;5077172;28;20475;-74
2023/06/28 16:48:09;;;;;;;6.70;2.17;;;;;;;;;;5079554;28;20853;-74
2023/06/28 16:50:38;;;;;;;4.10;1.47;;;;;;;;;;5063162;28;20476;-73
2023/06/28 16:55:54;;;;;;;6.27;1.43;;;;;;;;;;5047947;28;20457;-73
2023/06/28 16:58:49;;;;;;;;;;;;;;;;;;;;;
2023/06/28 17:01:19;;;;;;;4.50;1.23;;;;;;;;;;5058715;28;20449;-72
2023/06/28 17:03:54;;;;;;;5.30;3.27;;;;;;;;;;5056712;28;20475;-73
2023/06/28 17:06:38;;;;;;;5.27;1.77;;;;;;;;;;5055370;28;20784;-73
2023/06/28 17:09:09;;;;;;;5.03;2.00;;;;;;;;;;5056326;28;20454;-73
2023/06/28 17:11:50;;;;;;;3.50;1.50;;;;;;;;;;5055657;28;20453;-73
2023/06/28 17:17:29;;;;;;;3.13;1.47;;;;;;;;;;5036177;28;20790;-73
2023/06/28 17:20:03;;;;;;;3.13;1.30;;;;;;;;;;5037992;28;20472;-72
2023/06/28 17:30:49;;;;;;;4.10;1.70;;;;;;;;;;1466757;26;21003;-78
2023/06/28 17:33:16;;;;;;;3.90;1.60;;;;;;;;;;5022592;28;20451;-79
2023/06/28 17:35:46;;;;;;;4.07;1.57;;;;;;;;;;5025549;28;20435;-78
2023/06/28 17:38:14;;;;;;;3.50;1.60;;;;;;;;;;5026847;28;20671;-79
2023/06/28 17:40:43;;;;;;;6.87;1.60;;;;;;;;;;5025007;28;20451;-78
2023/06/28 17:43:11;;;;;;;3.97;1.63;;;;;;;;;;5027091;28;20487;-77
2023/06/28 17:45:39;;;;;;;4.20;2.50;;;;;;;;;;5031265;28;20550;-78
2023/06/28 17:48:10;;;;;;;7.50;1.63;;;;;;;;;;5028081;28;20451;-79
2023/06/28 17:50:37;;;;;;;5.37;1.60;;;;;;;;;;5043033;28;20765;-77
2023/06/28 17:53:08;;;;;;;5.23;1.87;;;;;;;;;;5020537;28;20474;-78
2023/06/28 17:55:35;;;;;;;4.37;1.60;;;;;;;;;;5003939;28;20526;-79
2023/06/28 17:58:03;;;;;;;3.70;1.30;;;;;;;;;;5006026;28;20558;-79
2023/06/28 18:00:32;;;;;;;4.30;2.20;;;;;;;;;;5006121;28;21054;-77
2023/06/28 18:03:12;;;;;;;4.63;2.40;;;;;;;;;;5009787;28;20487;-78
2023/06/28 18:05:41;;;;;;;6.20;2.47;;;;;;;;;;5024120;28;20527;-78
2023/06/28 18:08:11;;;;;;;3.63;2.03;;;;;;;;;;5021900;28;21001;-77
2023/06/28 18:10:39;;;;;;;5.70;2.70;;;;;;;;;;5010111;28;20479;-78
2023/06/28 18:13:06;;;;;;;6.57;2.03;;;;;;;;;;5025637;28;20455;-77
2023/06/28 18:15:34;;;;;;;10.30;2.40;;;;;;;;;;5028173;28;20485;-79
2023/06/28 18:18:02;;;;;;;3.60;2.00;;;;;;;;;;5023765;28;20471;-79
2023/06/28 18:27:12;;;;;;;5.03;2.80;;;;;;;;;;4994071;28;20460;-75
2023/06/28 18:29:58;;;;;;;;;;;;;;;;;;;;;
2023/06/28 18:32:47;;;;;;;3.80;2.30;;;;;;;;;;5008269;28;20482;-72
2023/06/28 18:44:48;;;;;;;4.70;3.00;;;;;;;;;;4925243;28;20540;-72
2023/06/28 18:47:31;;;;;;;6.00;3.50;;;;;;;;;;5018286;28;20463;-73
2023/06/28 18:50:01;;;;;;;7.10;3.40;;;;;;;;;;5017783;28;20455;-72
2023/06/28 18:59:11;;;;;;;7.37;4.90;;;;;;;;;;4977653;28;20445;-75
2023/06/28 19:05:00;;;;;;;;;;;;;;;;;;;;;
2023/06/28 19:07:54;;;;;;;5.27;4.77;;;;;;;;;;5019531;28;20447;-75
2023/06/28 19:10:37;;;;;;;5.40;4.57;;;;;;;;;;5019110;28;20459;-74
2023/06/28 19:13:07;;;;;;;5.47;4.90;;;;;;;;;;5018905;28;20461;-73
2023/06/28 19:15:38;;;;;;;4.90;4.30;;;;;;;;;;5017580;28;20443;-73
2023/06/28 19:18:08;;;;;;;5.13;4.40;;;;;;;;;;5017253;28;20478;-73
2023/06/28 19:23:32;;;;;;;5.97;4.20;;;;;;;;;;5018013;28;20518;-73
2023/06/28 19:26:21;;;;;;;8.40;5.80;;;;;;;;;;5009170;28;20518;-74
2023/06/28 19:41:04;;;;;;;7.00;5.10;;;;;;;;;;5020386;28;20455;-72
2023/06/28 19:43:34;;;;;;;7.17;4.70;;;;;;;;;;5019013;28;20486;-72
2023/06/28 19:46:04;;;;;;;5.40;4.90;;;;;;;;;;5020098;28;20490;-72
2023/06/28 19:48:32;;;;;;;5.87;5.33;;;;;;;;;;5020064;28;21117;-73
2023/06/28 19:51:20;;;;;;;5.90;5.13;;;;;;;;;;5012332;28;20527;-72
2023/06/28 19:54:12;;;;;;;;;;;;;;;;;;;;;
2023/06/28 19:56:52;;;;;;;9.83;6.30;;;;;;;;;;5019894;28;20526;-73
2023/06/28 20:05:19;;;;;;;7.60;5.73;;;;;;;;;;5017080;28;20496;-72
2023/06/28 20:10:34;;;;;;;7.60;6.73;;;;;;;;;;5012155;28;20458;-73
2023/06/28 20:13:13;;;;;;;8.67;7.40;;;;;;;;;;5010818;28;20445;-73
2023/06/28 20:15:49;;;;;;;8.97;7.67;;;;;;;;;;5022305;28;20525;-73
2023/06/28 20:18:30;;;;;;;10.37;9.00;;;;;;;;;;5018220;28;20968;-73
2023/06/28 20:21:03;;;;;;;9.90;7.60;;;;;;;;;;5020788;28;20532;-72
2023/06/28 20:23:32;;;;;;;8.07;7.00;;;;;;;;;;5022706;28;20487;-72
2023/06/28 20:26:14;;;;;;;8.80;7.90;;;;;;;;;;5016834;28;20513;-73
2023/06/28 20:28:50;;;;;;;14.50;11.10;;;;;;;;;;5016163;28;20531;-73
2023/06/28 20:31:31;;;;;;;9.57;8.10;;;;;;;;;;5020426;28;20467;-73
2023/06/28 20:34:02;;;;;;;10.27;8.53;;;;;;;;;;5021857;28;20531;-73
2023/06/28 20:36:52;;;;;;;8.80;7.90;;;;;;;;;;5017911;28;20479;-74
2023/06/28 20:39:20;;;;;;;10.90;8.00;;;;;;;;;;5019404;28;20873;-73
2023/06/28 20:41:50;;;;;;;8.93;8.03;;;;;;;;;;5020185;28;20456;-73
2023/06/28 20:44:23;;;;;;;9.87;8.73;;;;;;;;;;5016848;28;20556;-74
2023/06/28 20:46:53;;;;;;;9.60;8.70;;;;;;;;;;5023547;28;20451;-74
2023/06/28 20:49:28;;;;;;;11.90;10.70;;;;;;;;;;5017333;28;20478;-74
2023/06/28 20:52:07;;;;;;;13.30;11.17;;;;;;;;;;5016576;28;20490;-73
2023/06/28 20:54:50;;;;;;;13.07;9.90;;;;;;;;;;5020537;28;20455;-73
2023/06/28 20:57:24;;;;;;;12.03;10.83;;;;;;;;;;5017460;28;20519;-73
2023/06/28 20:59:58;;;;;;;11.90;10.37;;;;;;;;;;5023094;28;20483;-73
2023/06/28 21:02:30;;;;;;;11.00;9.27;;;;;;;;;;5018563;28;20517;-73
2023/06/28 21:04:58;;;;;;;11.20;9.90;;;;;;;;;;5020162;28;20495;-73
2023/06/28 21:07:31;;;;;;;11.33;9.27;;;;;;;;;;5023224;28;20471;-73
2023/06/28 21:09:58;;;;;;;12.47;11.27;;;;;;;;;;5019903;28;20466;-73
2023/06/28 21:12:35;;;;;;;10.33;9.33;;;;;;;;;;5021528;28;20507;-73
2023/06/28 21:15:04;;;;;;;10.90;9.90;;;;;;;;;;5023352;28;20493;-73
2023/06/28 21:17:32;;;;;;;10.53;9.63;;;;;;;;;;5018961;28;20893;-72
2023/06/28 21:20:00;;;;;;;11.17;8.43;;;;;;;;;;5021249;28;20447;-73
2023/06/28 21:22:28;;;;;;;10.03;9.10;;;;;;;;;;5018191;28;20896;-73
2023/06/28 21:24:58;;;;;;;10.23;9.33;;;;;;;;;;5014188;28;20498;-73
2023/06/28 21:27:25;;;;;;;10.73;9.73;;;;;;;;;;5060244;23;20517;-77
2023/06/28 21:29:55;;;;;;;10.30;9.40;;;;;;;;;;5040282;28;20469;-78
2023/06/28 21:32:23;;;;;;;9.80;8.90;;;;;;;;;;5043645;28;20476;-76
2023/06/28 21:34:51;;;;;;;9.37;8.47;;;;;;;;;;5044580;28;20458;-77
2023/06/28 21:37:20;;;;;;;10.00;9.10;;;;;;;;;;5046217;28;20541;-78
2023/06/28 21:39:47;;;;;;;11.70;10.70;;;;;;;;;;5043925;28;20473;-78
2023/06/28 21:42:15;;;;;;;11.23;10.10;;;;;;;;;;5045426;28;20478;-79
2023/06/28 21:44:45;;;;;;;12.07;9.70;;;;;;;;;;5044775;28;20942;-79
2023/06/28 21:47:14;;;;;;;10.90;9.90;;;;;;;;;;5042189;28;20549;-78
2023/06/28 21:49:41;;;;;;;10.50;9.47;;;;;;;;;;5049529;28;20542;-79
2023/06/28 21:52:09;;;;;;;11.73;10.63;;;;;;;;;;5043919;28;20512;-78
2023/06/28 21:54:36;;;;;;;12.43;11.30;;;;;;;;;;5046054;28;20446;-78
2023/06/28 21:57:04;;;;;;;10.70;9.70;;;;;;;;;;5048068;28;20446;-79
2023/06/28 21:59:31;;;;;;;12.80;10.10;;;;;;;;;;5045139;28;20469;-79
2023/06/28 22:01:59;;;;;;;10.97;9.87;;;;;;;;;;5042378;28;20477;-78
2023/06/28 22:04:29;;;;;;;9.40;8.60;;;;;;;;;;5044083;28;20486;-79
2023/06/28 22:07:00;;;;;;;10.13;9.13;;;;;;;;;;5046175;28;20465;-78
2023/06/28 22:09:27;;;;;;;12.73;10.60;;;;;;;;;;5039112;28;20443;-79
2023/06/28 22:11:58;;;;;;;10.20;9.20;;;;;;;;;;5039549;28;20466;-78
2023/06/28 22:14:27;;;;;;;13.00;11.70;;;;;;;;;;5044138;28;20501;-79
2023/06/28 22:16:57;;;;;;;10.43;9.53;;;;;;;;;;5043629;28;20874;-78
2023/06/28 22:19:27;;;;;;;10.33;9.33;;;;;;;;;;5040291;28;20788;-78
2023/06/28 22:21:56;;;;;;;11.50;10.37;;;;;;;;;;5045491;28;20481;-77
2023/06/28 22:24:24;;;;;;;11.77;10.63;;;;;;;;;;5041678;28;20947;-78
2023/06/28 22:26:52;;;;;;;11.27;10.20;;;;;;;;;;5041833;28;20568;-78
2023/06/28 22:29:19;;;;;;;11.47;10.47;;;;;;;;;;5043492;28;20548;-78
2023/06/28 22:31:47;;;;;;;10.43;9.37;;;;;;;;;;5023850;28;20489;-78
2023/06/28 22:34:15;;;;;;;10.93;9.93;;;;;;;;;;5040610;28;20473;-78
2023/06/28 22:36:48;;;;;;;11.87;10.60;;;;;;;;;;5044096;28;20443;-77
2023/06/28 22:39:18;;;;;;;10.97;9.97;;;;;;;;;;5042655;28;20875;-78
2023/06/28 22:41:45;;;;;;;10.60;9.57;;;;;;;;;;5047759;28;20454;-78
2023/06/28 22:44:14;;;;;;;11.80;10.63;;;;;;;;;;5049794;28;20497;-77
2023/06/28 22:46:41;;;;;;;11.30;10.33;;;;;;;;;;5045268;28;20473;-79
2023/06/28 22:49:09;;;;;;;11.67;10.50;;;;;;;;;;5050777;28;20453;-78
2023/06/28 22:51:40;;;;;;;11.07;10.17;;;;;;;;;;5047993;28;20518;-78
2023/06/28 22:54:07;;;;;;;11.20;10.10;;;;;;;;;;5049143;28;20494;-79
2023/06/28 22:56:37;;;;;;;11.43;10.23;;;;;;;;;;5045510;28;20754;-78
2023/06/28 22:59:06;;;;;;;12.80;11.60;;;;;;;;;;5049105;28;20466;-78
2023/06/28 23:01:34;;;;;;;12.03;10.83;;;;;;;;;;5051269;28;20453;-78
2023/06/28 23:04:02;;;;;;;12.47;11.37;;;;;;;;;;5049073;28;20457;-78
2023/06/28 23:06:29;;;;;;;12.30;11.00;;;;;;;;;;5048443;28;20450;-78
2023/06/28 23:09:01;;;;;;;11.37;10.37;;;;;;;;;;5051071;28;20430;-79
2023/06/28 23:11:29;;;;;;;13.40;12.00;;;;;;;;;;5048674;28;20470;-78
2023/06/28 23:13:59;;;;;;;12.97;11.87;;;;;;;;;;5051734;28;20461;-79
2023/06/28 23:16:26;;;;;;;15.73;12.20;;;;;;;;;;5047939;28;20469;-79
2023/06/28 23:18:57;;;;;;;12.90;11.50;;;;;;;;;;5046018;28;20450;-77
2023/06/28 23:21:25;;;;;;;15.07;13.70;;;;;;;;;;5048787;28;20454;-78
2023/06/28 23:23:54;;;;;;;15.37;13.77;;;;;;;;;;5049494;28;20580;-77
2023/06/28 23:26:23;;;;;;;18.37;16.67;;;;;;;;;;5045573;28;20549;-79
2023/06/28 23:28:51;;;;;;;19.07;17.17;;;;;;;;;;5049328;28;20490;-78
2023/06/28 23:31:20;;;;;;;18.60;16.83;;;;;;;;;;5049455;28;20528;-79
2023/06/28 23:33:47;;;;;;;17.90;16.10;;;;;;;;;;5049396;28;20454;-77
2023/06/28 23:36:15;;;;;;;16.20;14.80;;;;;;;;;;5048173;28;20458;-78
2023/06/28 23:38:43;;;;;;;14.57;13.17;;;;;;;;;;5050663;28;20453;-79
2023/06/28 23:41:11;;;;;;;12.80;11.70;;;;;;;;;;5050539;28;20454;-77
2023/06/28 23:43:40;;;;;;;12.80;11.50;;;;;;;;;;5047158;28;20458;-77
2023/06/28 23:46:10;;;;;;;13.27;11.93;;;;;;;;;;5051218;28;20486;-78
2023/06/28 23:48:44;;;;;;;12.73;11.63;;;;;;;;;;5048247;28;20831;-78
2023/06/28 23:51:12;;;;;;;12.40;11.07;;;;;;;;;;5050388;28;20548;-79